createdAt,value
2023-10-28T00:01:51.851Z,97791.16
2023-10-28T00:03:56.242Z,97795.47
2023-10-28T00:06:02.835Z,97791.84
2023-10-28T00:08:07.561Z,97783.91
2023-10-28T00:10:12.542Z,97782.88
2023-10-28T00:12:17.122Z,97776.78
2023-10-28T00:14:21.853Z,97775.28
2023-10-28T00:16:26.239Z,97778.94
2023-10-28T00:18:29.968Z,97774.63
2023-10-28T00:20:34.304Z,97769.03
2023-10-28T00:22:39.771Z,97766.06
2023-10-28T00:24:44.246Z,97759.47
2023-10-28T00:26:48.845Z,97758.31
2023-10-28T00:28:53.880Z,97757.19
2023-10-28T00:30:57.844Z,97754.03
2023-10-28T00:33:02.049Z,97763.94
2023-10-28T00:35:06.478Z,97759.66
2023-10-28T00:37:11.445Z,97754.22
2023-10-28T00:39:18.158Z,97760.16
2023-10-28T00:41:22.631Z,97756.88
2023-10-28T00:43:27.251Z,97757.84
2023-10-28T00:45:30.750Z,97759.19
2023-10-28T00:47:35.969Z,97761.00
2023-10-28T00:49:41.137Z,97760.84
2023-10-28T00:51:47.382Z,97757.34
2023-10-28T00:53:54.288Z,97753.72
2023-10-28T00:56:00.755Z,97751.09
2023-10-28T00:58:05.199Z,97745.81
2023-10-28T01:00:11.930Z,97759.00
2023-10-28T01:02:16.260Z,97757.06
2023-10-28T01:04:20.493Z,97757.22
2023-10-28T01:06:25.286Z,97753.09
2023-10-28T01:08:29.712Z,97753.22
2023-10-28T01:10:35.080Z,97751.78
2023-10-28T01:12:41.175Z,97755.56
2023-10-28T01:14:45.913Z,97752.06
2023-10-28T01:16:50.534Z,97752.25
2023-10-28T01:18:57.328Z,97744.50
2023-10-28T01:21:10.910Z,97754.25
2023-10-28T01:23:15.098Z,97746.63
2023-10-28T01:25:20.322Z,97746.16
2023-10-28T01:27:24.749Z,97746.16
2023-10-28T01:29:29.916Z,97748.28
2023-10-28T01:31:34.228Z,97748.09
2023-10-28T01:33:38.220Z,97743.50
2023-10-28T01:35:42.746Z,97750.91
2023-10-28T01:37:49.282Z,97749.94
2023-10-28T01:39:54.234Z,97746.13
2023-10-28T01:41:58.533Z,97749.25
2023-10-28T01:44:02.861Z,97748.94
2023-10-28T01:46:07.297Z,97750.28
2023-10-28T01:48:11.638Z,97743.84
2023-10-28T01:50:18.219Z,97749.94
2023-10-28T01:52:21.500Z,97748.63
2023-10-28T01:54:27.473Z,97743.69
2023-10-28T01:56:31.701Z,97739.38
2023-10-28T01:58:36.411Z,97740.69
2023-10-28T02:00:41.304Z,97744.66
2023-10-28T02:02:47.037Z,97750.28
2023-10-28T02:04:53.217Z,97747.28
2023-10-28T02:06:59.275Z,97751.25
2023-10-28T02:09:04.491Z,97749.94
2023-10-28T02:11:09.735Z,97751.59
2023-10-28T02:13:14.684Z,97743.31
2023-10-28T02:15:19.047Z,97742.97
2023-10-28T02:17:22.163Z,97745.13
2023-10-28T02:19:28.079Z,97745.63
2023-10-28T02:21:32.363Z,97746.13
2023-10-28T02:23:36.390Z,97742.31
2023-10-28T02:25:40.712Z,97740.31
2023-10-28T02:27:46.446Z,97742.13
2023-10-28T02:29:49.838Z,97737.38
2023-10-28T02:31:54.204Z,97739.34
2023-10-28T02:33:58.723Z,97731.59
2023-10-28T02:36:07.148Z,97727.09
2023-10-28T02:38:12.167Z,97728.44
2023-10-28T02:40:17.413Z,97734.59
2023-10-28T02:42:23.919Z,97731.78
2023-10-28T02:44:29.639Z,97715.75
2023-10-28T02:46:33.776Z,97718.75
2023-10-28T02:48:37.966Z,97728.47
2023-10-28T02:50:42.697Z,97722.88
2023-10-28T02:52:47.128Z,97724.19
2023-10-28T02:54:51.540Z,97714.09
2023-10-28T02:56:56.034Z,97714.44
2023-10-28T02:59:00.554Z,97714.25
2023-10-28T03:01:11.054Z,97718.06
2023-10-28T03:03:14.793Z,97706.00
2023-10-28T03:05:19.792Z,97713.28
2023-10-28T03:07:23.935Z,97709.97
2023-10-28T03:09:28.337Z,97707.31
2023-10-28T03:11:33.054Z,97707.66
2023-10-28T03:13:36.250Z,97694.81
2023-10-28T03:15:41.031Z,97699.75
2023-10-28T03:17:46.923Z,97704.69
2023-10-28T03:19:53.039Z,97704.38
2023-10-28T03:21:57.620Z,97703.34
2023-10-28T03:24:02.410Z,97695.78
2023-10-28T03:26:09.029Z,97700.41
2023-10-28T03:28:13.817Z,97699.91
2023-10-28T03:30:18.695Z,97692.16
2023-10-28T03:32:23.702Z,97698.75
2023-10-28T03:34:29.309Z,97689.00
2023-10-28T03:36:33.953Z,97682.06
2023-10-28T03:38:38.973Z,97682.22
2023-10-28T03:40:45.511Z,97687.50
2023-10-28T03:42:48.454Z,97690.31
2023-10-28T03:44:54.356Z,97691.47
2023-10-28T03:46:58.753Z,97692.31
2023-10-28T03:49:03.349Z,97691.47
2023-10-28T03:51:09.297Z,97691.81
2023-10-28T03:53:13.929Z,97692.63
2023-10-28T03:55:18.541Z,97688.19
2023-10-28T03:57:22.822Z,97688.19
2023-10-28T03:59:27.509Z,97681.75
2023-10-28T04:01:31.826Z,97685.88
2023-10-28T04:03:36.461Z,97691.00
2023-10-28T04:05:41.569Z,97685.53
2023-10-28T04:07:47.335Z,97689.84
2023-10-28T04:09:51.935Z,97693.31
2023-10-28T04:11:56.192Z,97686.19
2023-10-28T04:14:00.577Z,97683.06
2023-10-28T04:16:04.934Z,97686.34
2023-10-28T04:18:09.273Z,97687.19
2023-10-28T04:20:13.737Z,97691.31
2023-10-28T04:22:17.291Z,97701.56
2023-10-28T04:24:23.554Z,97707.66
2023-10-28T04:26:28.868Z,97702.19
2023-10-28T04:28:33.189Z,97696.28
2023-10-28T04:30:37.733Z,97699.72
2023-10-28T04:32:44.427Z,97694.44
2023-10-28T04:34:56.337Z,97693.81
2023-10-28T04:37:01.852Z,97700.06
2023-10-28T04:39:06.868Z,97688.50
2023-10-28T04:41:12.994Z,97693.47
2023-10-28T04:43:16.304Z,97692.31
2023-10-28T04:45:23.240Z,97693.47
2023-10-28T04:47:28.003Z,97683.09
2023-10-28T04:49:32.745Z,97695.28
2023-10-28T04:51:37.451Z,97690.69
2023-10-28T04:53:41.455Z,97696.16
2023-10-28T04:55:46.633Z,97692.66
2023-10-28T04:57:52.798Z,97681.94
2023-10-28T04:59:57.310Z,97688.84
2023-10-28T05:02:02.490Z,97694.63
2023-10-28T05:04:07.428Z,97689.50
2023-10-28T05:06:12.044Z,97697.25
2023-10-28T05:08:17.669Z,97695.09
2023-10-28T05:10:22.874Z,97697.56
2023-10-28T05:12:27.918Z,97694.78
2023-10-28T05:14:34.081Z,97703.38
2023-10-28T05:16:38.752Z,97705.03
2023-10-28T05:18:43.320Z,97708.31
2023-10-28T05:20:47.983Z,97701.56
2023-10-28T05:22:52.929Z,97711.97
2023-10-28T05:24:57.211Z,97710.97
2023-10-28T05:27:02.410Z,97713.31
2023-10-28T05:29:07.904Z,97711.97
2023-10-28T05:31:14.037Z,97708.66
2023-10-28T05:33:18.333Z,97715.78
2023-10-28T05:35:22.547Z,97716.59
2023-10-28T05:37:28.742Z,97717.91
2023-10-28T05:39:33.584Z,97713.94
2023-10-28T05:41:38.078Z,97715.09
2023-10-28T05:43:42.522Z,97712.63
2023-10-28T05:45:47.015Z,97718.25
2023-10-28T05:47:53.987Z,97709.63
2023-10-28T05:49:59.124Z,97708.31
2023-10-28T05:52:03.783Z,97708.00
2023-10-28T05:54:08.789Z,97710.97
2023-10-28T05:56:13.530Z,97708.97
2023-10-28T05:58:18.549Z,97712.59
2023-10-28T06:00:22.764Z,97709.50
2023-10-28T06:02:27.934Z,97708.00
2023-10-28T06:04:34.266Z,97713.13
2023-10-28T06:06:39.313Z,97704.03
2023-10-28T06:08:43.880Z,97700.56
2023-10-28T06:10:49.259Z,97695.44
2023-10-28T06:12:53.710Z,97703.19
2023-10-28T06:14:58.610Z,97706.69
2023-10-28T06:17:02.142Z,97704.38
2023-10-28T06:19:06.387Z,97707.50
2023-10-28T06:21:12.536Z,97705.03
2023-10-28T06:23:17.575Z,97712.97
2023-10-28T06:25:21.593Z,97717.44
2023-10-28T06:27:25.855Z,97713.94
2023-10-28T06:29:31.269Z,97715.94
2023-10-28T06:31:37.486Z,97714.44
2023-10-28T06:33:42.244Z,97716.94
2023-10-28T06:35:47.597Z,97718.25
2023-10-28T06:37:52.179Z,97720.06
2023-10-28T06:39:56.641Z,97721.69
2023-10-28T06:42:02.549Z,97727.84
2023-10-28T06:44:11.049Z,97734.91
2023-10-28T06:46:16.365Z,97725.19
2023-10-28T06:48:21.757Z,97725.19
2023-10-28T06:50:26.919Z,97717.91
2023-10-28T06:52:31.667Z,97718.25
2023-10-28T06:54:38.865Z,97722.22
2023-10-28T06:56:43.465Z,97723.88
2023-10-28T06:58:48.256Z,97723.53
2023-10-28T07:00:52.618Z,97726.50
2023-10-28T07:02:57.147Z,97729.13
2023-10-28T07:05:01.697Z,97724.81
2023-10-28T07:07:06.779Z,97721.34
2023-10-28T07:09:11.033Z,97729.44
2023-10-28T07:11:17.347Z,97731.22
2023-10-28T07:13:22.313Z,97735.69
2023-10-28T07:15:26.953Z,97734.00
2023-10-28T07:17:31.528Z,97729.03
2023-10-28T07:19:36.015Z,97731.16
2023-10-28T07:21:39.528Z,97735.28
2023-10-28T07:23:44.467Z,97734.28
2023-10-28T07:25:49.669Z,97732.97
2023-10-28T07:27:55.243Z,97738.75
2023-10-28T07:30:00.647Z,97732.94
2023-10-28T07:32:06.535Z,97730.78
2023-10-28T07:34:11.764Z,97738.19
2023-10-28T07:36:17.066Z,97734.03
2023-10-28T07:38:22.411Z,97732.69
2023-10-28T07:40:27.053Z,97721.78
2023-10-28T07:42:30.897Z,97717.13
2023-10-28T07:44:38.253Z,97716.94
2023-10-28T07:46:43.528Z,97730.84
2023-10-28T07:48:48.307Z,97723.34
2023-10-28T07:50:52.876Z,97725.81
2023-10-28T07:52:57.077Z,97730.81
2023-10-28T07:55:02.400Z,97727.13
2023-10-28T07:57:08.252Z,97736.72
2023-10-28T07:59:13.911Z,97743.31
2023-10-28T08:01:21.347Z,97749.09
2023-10-28T08:03:27.059Z,97746.28
2023-10-28T08:05:31.732Z,97743.44
2023-10-28T08:07:36.100Z,97742.28
2023-10-28T08:09:40.792Z,97742.78
2023-10-28T08:11:44.597Z,97745.41
2023-10-28T08:13:50.862Z,97743.22
2023-10-28T08:15:54.883Z,97742.06
2023-10-28T08:18:00.238Z,97751.47
2023-10-28T08:20:05.330Z,97745.03
2023-10-28T08:22:08.944Z,97747.50
2023-10-28T08:24:17.060Z,97752.44
2023-10-28T08:26:21.389Z,97753.44
2023-10-28T08:28:26.851Z,97749.06
2023-10-28T08:30:31.430Z,97743.03
2023-10-28T08:32:36.998Z,97747.28
2023-10-28T08:34:41.872Z,97747.03
2023-10-28T08:36:46.141Z,97763.72
2023-10-28T08:38:50.773Z,97748.56
2023-10-28T08:40:55.255Z,97752.69
2023-10-28T08:43:01.192Z,97746.84
2023-10-28T08:45:07.004Z,97750.63
2023-10-28T08:47:11.553Z,97750.53
2023-10-28T08:49:20.535Z,97732.72
2023-10-28T08:51:26.756Z,97734.47
2023-10-28T08:53:35.309Z,97732.44
2023-10-28T08:55:40.261Z,97733.63
2023-10-28T08:57:46.283Z,97733.63
2023-10-28T08:59:52.334Z,97728.69
2023-10-28T09:01:59.371Z,97730.53
2023-10-28T09:04:04.510Z,97737.22
2023-10-28T09:06:09.297Z,97736.66
2023-10-28T09:08:16.378Z,97740.22
2023-10-28T09:10:22.164Z,97735.38
2023-10-28T09:12:26.827Z,97732.16
2023-10-28T09:14:31.661Z,97725.31
2023-10-28T09:16:36.611Z,97735.66
2023-10-28T09:18:41.705Z,97732.06
2023-10-28T09:20:48.073Z,97753.69
2023-10-28T09:22:52.071Z,97752.69
2023-10-28T09:24:58.064Z,97758.81
2023-10-28T09:27:02.812Z,97763.72
2023-10-28T09:29:07.276Z,97768.59
2023-10-28T09:31:11.793Z,97770.78
2023-10-28T09:33:18.853Z,97774.81
2023-10-28T09:35:24.587Z,97775.81
2023-10-28T09:37:28.793Z,97772.25
2023-10-28T09:39:36.871Z,97776.75
2023-10-28T09:41:43.754Z,97777.16
2023-10-28T09:43:48.826Z,97771.84
2023-10-28T09:45:54.360Z,97779.41
2023-10-28T09:48:02.543Z,97781.50
2023-10-28T09:50:09.256Z,97779.41
2023-10-28T09:52:17.777Z,97780.13
2023-10-28T09:54:28.781Z,97774.34
2023-10-28T09:56:36.999Z,97771.28
2023-10-28T09:58:48.478Z,97771.81
2023-10-28T10:00:56.983Z,97773.34
2023-10-28T10:03:13.393Z,97761.41
2023-10-28T10:05:23.818Z,97767.69
2023-10-28T10:07:27.289Z,97768.03
2023-10-28T10:09:31.654Z,97767.34
2023-10-28T10:11:36.046Z,97762.91
2023-10-28T10:13:47.742Z,97766.78
2023-10-28T10:16:00.993Z,97767.78
2023-10-28T10:18:13.492Z,97765.06
2023-10-28T10:20:27.350Z,97759.75
2023-10-28T10:22:32.123Z,97756.72
2023-10-28T10:24:36.559Z,97764.28
2023-10-28T10:26:41.324Z,97767.59
2023-10-28T10:28:49.122Z,97770.38
2023-10-28T10:30:54.085Z,97766.66
2023-10-28T10:32:58.506Z,97758.81
2023-10-28T10:35:05.945Z,97763.66
2023-10-28T10:37:11.347Z,97765.81
2023-10-28T10:39:20.734Z,97763.50
2023-10-28T10:41:30.216Z,97771.91
2023-10-28T10:43:35.318Z,97764.28
2023-10-28T10:45:40.820Z,97767.06
2023-10-28T10:47:47.757Z,97764.41
2023-10-28T10:49:53.175Z,97760.13
2023-10-28T10:51:57.917Z,97760.75
2023-10-28T10:54:01.898Z,97759.56
2023-10-28T10:56:07.090Z,97764.28
2023-10-28T10:58:10.222Z,97766.59
2023-10-28T11:00:15.611Z,97758.84
2023-10-28T11:02:22.093Z,97752.16
2023-10-28T11:04:26.976Z,97748.69
2023-10-28T11:06:31.252Z,97753.53
2023-10-28T11:08:36.585Z,97749.00
2023-10-28T11:10:41.866Z,97752.84
2023-10-28T11:12:45.894Z,97745.69
2023-10-28T11:14:50.192Z,97741.22
2023-10-28T11:16:54.836Z,97761.91
2023-10-28T11:19:01.319Z,97754.78
2023-10-28T11:21:06.189Z,97747.81
2023-10-28T11:23:10.392Z,97740.81
2023-10-28T11:25:14.732Z,97743.03
2023-10-28T11:27:21.831Z,97734.19
2023-10-28T11:29:25.765Z,97734.69
2023-10-28T11:31:31.364Z,97748.09
2023-10-28T11:33:36.205Z,97745.00
2023-10-28T11:35:42.125Z,97751.59
2023-10-28T11:37:46.146Z,97758.56
2023-10-28T11:39:52.229Z,97750.75
2023-10-28T11:41:57.992Z,97747.94
2023-10-28T11:44:02.050Z,97745.31
2023-10-28T11:46:07.060Z,97740.16
2023-10-28T11:48:11.326Z,97727.53
2023-10-28T11:50:15.296Z,97722.88
2023-10-28T11:52:20.132Z,97726.34
2023-10-28T11:54:25.047Z,97722.69
2023-10-28T11:56:29.707Z,97727.63
2023-10-28T11:58:34.670Z,97727.31
2023-10-28T12:00:38.567Z,97726.06
2023-10-28T12:02:43.109Z,97724.09
2023-10-28T12:04:47.231Z,97716.34
2023-10-28T12:06:51.689Z,97721.06
2023-10-28T12:08:59.181Z,97721.72
2023-10-28T12:11:03.971Z,97726.47
2023-10-28T12:13:08.230Z,97715.88
2023-10-28T12:15:13.019Z,97721.03
2023-10-28T12:17:17.147Z,97719.66
2023-10-28T12:19:21.362Z,97721.50
2023-10-28T12:21:24.188Z,97718.66
2023-10-28T12:23:28.509Z,97721.97
2023-10-28T12:25:35.660Z,97720.31
2023-10-28T12:27:39.826Z,97718.25
2023-10-28T12:29:46.448Z,97712.72
2023-10-28T12:31:50.871Z,97706.72
2023-10-28T12:33:54.618Z,97706.31
2023-10-28T12:35:58.638Z,97710.38
2023-10-28T12:38:02.561Z,97714.66
2023-10-28T12:40:07.438Z,97708.53
2023-10-28T12:42:12.974Z,97711.63
2023-10-28T12:44:16.446Z,97703.84
2023-10-28T12:46:20.191Z,97706.94
2023-10-28T12:48:23.966Z,97701.16
2023-10-28T12:50:28.651Z,97703.63
2023-10-28T12:52:33.699Z,97705.63
2023-10-28T12:54:36.875Z,97699.03
2023-10-28T12:56:41.390Z,97697.78
2023-10-28T12:58:47.976Z,97698.00
2023-10-28T13:00:54.059Z,97691.22
2023-10-28T13:02:58.368Z,97690.63
2023-10-28T13:05:01.565Z,97695.09
2023-10-28T13:07:06.204Z,97686.31
2023-10-28T13:09:13.281Z,97694.28
2023-10-28T13:11:19.411Z,97699.41
2023-10-28T13:13:24.933Z,97693.88
2023-10-28T13:15:30.599Z,97693.88
2023-10-28T13:17:34.991Z,97695.97
2023-10-28T13:19:39.748Z,97692.09
2023-10-28T13:21:46.752Z,97688.22
2023-10-28T13:23:51.151Z,97687.00
2023-10-28T13:25:54.930Z,97687.44
2023-10-28T13:27:58.424Z,97689.88
2023-10-28T13:30:06.168Z,97684.34
2023-10-28T13:32:12.205Z,97683.09
2023-10-28T13:34:15.901Z,97677.97
2023-10-28T13:36:19.463Z,97677.34
2023-10-28T13:38:23.167Z,97679.63
2023-10-28T13:40:26.730Z,97670.19
2023-10-28T13:42:30.694Z,97676.94
2023-10-28T13:44:34.499Z,97668.34
2023-10-28T13:46:39.436Z,97667.69
2023-10-28T13:48:45.585Z,97675.88
2023-10-28T13:50:49.155Z,97665.63
2023-10-28T13:52:53.566Z,97668.06
2023-10-28T13:54:57.407Z,97666.81
2023-10-28T13:57:01.371Z,97670.47
2023-10-28T13:59:05.666Z,97665.91
2023-10-28T14:01:10.407Z,97667.69
2023-10-28T14:03:15.942Z,97663.53
2023-10-28T14:05:22.270Z,97663.31
2023-10-28T14:07:26.303Z,97664.91
2023-10-28T14:09:30.081Z,97655.47
2023-10-28T14:11:35.060Z,97662.81
2023-10-28T14:13:41.008Z,97655.22
2023-10-28T14:15:45.569Z,97654.78
2023-10-28T14:17:49.242Z,97661.16
2023-10-28T14:19:52.994Z,97660.31
2023-10-28T14:21:57.668Z,97655.00
2023-10-28T14:24:02.300Z,97651.13
2023-10-28T14:26:05.199Z,97651.13
2023-10-28T14:28:08.830Z,97650.72
2023-10-28T14:30:15.163Z,97651.06
2023-10-28T14:32:18.995Z,97645.16
2023-10-28T14:34:24.355Z,97645.53
2023-10-28T14:36:29.802Z,97638.13
2023-10-28T14:38:36.527Z,97626.84
2023-10-28T14:40:41.593Z,97637.63
2023-10-28T14:42:45.336Z,97631.03
2023-10-28T14:44:51.763Z,97634.91
2023-10-28T14:46:55.347Z,97626.28
2023-10-28T14:49:00.548Z,97624.84
2023-10-28T14:51:04.577Z,97622.16
2023-10-28T14:53:09.037Z,97621.06
2023-10-28T14:55:14.991Z,97621.44
2023-10-28T14:57:18.932Z,97616.91
2023-10-28T14:59:25.392Z,97629.56
2023-10-28T15:01:33.106Z,97619.94
2023-10-28T15:03:37.589Z,97611.53
2023-10-28T15:05:43.600Z,97609.25
2023-10-28T15:07:47.550Z,97606.78
2023-10-28T15:09:51.816Z,97611.88
2023-10-28T15:11:57.463Z,97606.72
2023-10-28T15:14:01.284Z,97603.25
2023-10-28T15:16:05.632Z,97599.59
2023-10-28T15:18:09.710Z,97598.41
2023-10-28T15:20:14.472Z,97598.41
2023-10-28T15:22:18.671Z,97585.31
2023-10-28T15:24:22.185Z,97595.69
2023-10-28T15:26:26.911Z,97588.09
2023-10-28T15:28:32.170Z,97587.66
2023-10-28T15:30:36.288Z,97579.22
2023-10-28T15:32:40.638Z,97582.09
2023-10-28T15:34:48.644Z,97580.63
2023-10-28T15:36:53.636Z,97583.28
2023-10-28T15:38:57.376Z,97578.34
2023-10-28T15:41:03.134Z,97579.38
2023-10-28T15:43:06.931Z,97578.75
2023-10-28T15:45:12.980Z,97584.25
2023-10-28T15:47:17.946Z,97578.47
2023-10-28T15:49:21.746Z,97579.19
2023-10-28T15:51:27.473Z,97561.69
2023-10-28T15:53:30.563Z,97555.16
2023-10-28T15:55:34.858Z,97556.41
2023-10-28T15:57:38.481Z,97555.81
2023-10-28T15:59:42.243Z,97553.59
2023-10-28T16:01:47.577Z,97558.63
2023-10-28T16:03:52.277Z,97558.19
2023-10-28T16:05:56.357Z,97563.88
2023-10-28T16:08:00.407Z,97561.56
2023-10-28T16:10:04.834Z,97555.63
2023-10-28T16:12:09.574Z,97549.50
2023-10-28T16:14:13.868Z,97558.47
2023-10-28T16:16:18.378Z,97551.53
2023-10-28T16:18:24.397Z,97553.97
2023-10-28T16:20:28.448Z,97558.47
2023-10-28T16:22:32.255Z,97554.34
2023-10-28T16:24:36.264Z,97550.88
2023-10-28T16:26:42.016Z,97550.88
2023-10-28T16:28:46.537Z,97553.50
2023-10-28T16:30:50.967Z,97551.91
2023-10-28T16:32:55.267Z,97547.41
2023-10-28T16:35:00.746Z,97549.41
2023-10-28T16:37:04.492Z,97546.59
2023-10-28T16:39:12.228Z,97536.16
2023-10-28T16:41:16.241Z,97534.53
2023-10-28T16:43:20.282Z,97530.03
2023-10-28T16:45:27.604Z,97531.03
2023-10-28T16:47:31.211Z,97527.56
2023-10-28T16:49:35.079Z,97529.22
2023-10-28T16:51:40.238Z,97526.59
2023-10-28T16:53:44.795Z,97524.94
2023-10-28T16:55:48.636Z,97530.22
2023-10-28T16:57:52.242Z,97529.41
2023-10-28T16:59:56.009Z,97527.56
2023-10-28T17:02:00.029Z,97518.81
2023-10-28T17:04:06.148Z,97515.13
2023-10-28T17:06:10.036Z,97514.31
2023-10-28T17:08:15.267Z,97517.16
2023-10-28T17:10:18.773Z,97515.31
2023-10-28T17:12:22.473Z,97514.53
2023-10-28T17:14:25.167Z,97512.88
2023-10-28T17:16:30.714Z,97514.69
2023-10-28T17:18:35.129Z,97507.75
2023-10-28T17:20:39.775Z,97506.94
2023-10-28T17:22:43.809Z,97502.84
2023-10-28T17:24:49.067Z,97501.81
2023-10-28T17:26:53.063Z,97501.19
2023-10-28T17:28:56.572Z,97495.88
2023-10-28T17:31:01.446Z,97496.69
2023-10-28T17:33:05.101Z,97492.22
2023-10-28T17:35:12.511Z,97491.84
2023-10-28T17:37:15.319Z,97485.56
2023-10-28T17:39:20.118Z,97480.88
2023-10-28T17:41:26.124Z,97482.53
2023-10-28T17:43:29.894Z,97478.50
2023-10-28T17:45:34.307Z,97493.41
2023-10-28T17:47:38.499Z,97500.97
2023-10-28T17:49:43.042Z,97505.47
2023-10-28T17:51:46.788Z,97501.66
2023-10-28T17:53:49.395Z,97511.22
2023-10-28T17:55:54.155Z,97523.75
2023-10-28T17:58:01.664Z,97514.59
2023-10-28T18:00:07.950Z,97510.53
2023-10-28T18:02:16.833Z,97511.97
2023-10-28T18:04:20.603Z,97507.56
2023-10-28T18:06:24.458Z,97487.13
2023-10-28T18:08:28.759Z,97482.34
2023-10-28T18:10:32.508Z,97478.28
2023-10-28T18:12:35.511Z,97476.81
2023-10-28T18:14:40.670Z,97479.16
2023-10-28T18:16:44.785Z,97479.53
2023-10-28T18:18:50.031Z,97485.81
2023-10-28T18:20:55.044Z,97484.50
2023-10-28T18:22:59.295Z,97471.66
2023-10-28T18:25:04.586Z,97479.59
2023-10-28T18:27:08.428Z,97474.44
2023-10-28T18:29:13.220Z,97476.28
2023-10-28T18:31:20.223Z,97473.28
2023-10-28T18:33:24.652Z,97478.56
2023-10-28T18:35:29.535Z,97480.03
2023-10-28T18:37:33.578Z,97482.69
2023-10-28T18:39:37.688Z,97478.22
2023-10-28T18:41:42.787Z,97478.56
2023-10-28T18:43:45.592Z,97483.59
2023-10-28T18:45:50.173Z,97472.34
2023-10-28T18:47:55.670Z,97470.69
2023-10-28T18:50:00.767Z,97465.78
2023-10-28T18:52:06.434Z,97469.06
2023-10-28T18:54:10.715Z,97466.59
2023-10-28T18:56:15.404Z,97471.72
2023-10-28T18:58:18.249Z,97468.06
2023-10-28T19:00:23.293Z,97467.72
2023-10-28T19:02:26.541Z,97464.72
2023-10-28T19:04:37.138Z,97467.34
2023-10-28T19:06:41.860Z,97463.88
2023-10-28T19:08:47.379Z,97457.75
2023-10-28T19:10:54.339Z,97464.91
2023-10-28T19:12:58.533Z,97460.59
2023-10-28T19:15:02.369Z,97463.06
2023-10-28T19:17:06.174Z,97462.44
2023-10-28T19:19:11.132Z,97456.66
2023-10-28T19:21:16.399Z,97458.50
2023-10-28T19:23:20.425Z,97454.38
2023-10-28T19:25:24.735Z,97458.19
2023-10-28T19:27:28.997Z,97448.63
2023-10-28T19:29:32.984Z,97450.63
2023-10-28T19:31:37.151Z,97441.84
2023-10-28T19:33:40.988Z,97434.75
2023-10-28T19:35:45.091Z,97438.41
2023-10-28T19:37:51.071Z,97433.09
2023-10-28T19:39:55.497Z,97428.00
2023-10-28T19:41:59.742Z,97421.69
2023-10-28T19:44:05.263Z,97420.06
2023-10-28T19:46:10.124Z,97409.66
2023-10-28T19:48:14.063Z,97409.66
2023-10-28T19:50:18.525Z,97401.38
2023-10-28T19:52:24.089Z,97406.28
2023-10-28T19:54:28.771Z,97412.25
2023-10-28T19:56:33.641Z,97403.75
2023-10-28T19:58:39.633Z,97393.91
2023-10-28T20:00:44.390Z,97397.84
2023-10-28T20:02:49.934Z,97398.50
2023-10-28T20:04:54.546Z,97393.81
2023-10-28T20:06:59.339Z,97399.78
2023-10-28T20:09:04.736Z,97397.75
2023-10-28T20:11:10.150Z,97394.13
2023-10-28T20:13:15.434Z,97394.59
2023-10-28T20:15:21.825Z,97387.28
2023-10-28T20:17:26.269Z,97392.38
2023-10-28T20:19:30.432Z,97387.28
2023-10-28T20:21:35.052Z,97386.47
2023-10-28T20:23:40.084Z,97380.50
2023-10-28T20:25:44.692Z,97370.97
2023-10-28T20:27:52.082Z,97374.41
2023-10-28T20:29:56.482Z,97374.41
2023-10-28T20:32:01.441Z,97368.94
2023-10-28T20:34:07.314Z,97365.09
2023-10-28T20:36:11.595Z,97360.47
2023-10-28T20:38:16.060Z,97366.56
2023-10-28T20:40:20.576Z,97362.09
2023-10-28T20:42:24.546Z,97361.91
2023-10-28T20:44:32.776Z,97362.56
2023-10-28T20:46:37.472Z,97360.53
2023-10-28T20:48:41.732Z,97356.69
2023-10-28T20:50:46.151Z,97355.69
2023-10-28T20:52:51.437Z,97359.81
2023-10-28T20:54:56.602Z,97351.69
2023-10-28T20:57:00.691Z,97357.44
2023-10-28T20:59:05.230Z,97340.56
2023-10-28T21:01:12.720Z,97339.53
2023-10-28T21:03:16.018Z,97338.72
2023-10-28T21:05:21.385Z,97339.19
2023-10-28T21:07:26.262Z,97331.69
2023-10-28T21:09:30.685Z,97338.44
2023-10-28T21:11:36.585Z,97333.81
2023-10-28T21:13:40.790Z,97330.41
2023-10-28T21:15:45.376Z,97335.09
2023-10-28T21:17:52.760Z,97324.84
2023-10-28T21:19:58.422Z,97324.56
2023-10-28T21:22:04.019Z,97320.38
2023-10-28T21:24:10.750Z,97316.56
2023-10-28T21:26:15.446Z,97326.22
2023-10-28T21:28:19.664Z,97316.38
2023-10-28T21:30:24.279Z,97321.69
2023-10-28T21:32:32.457Z,97327.16
2023-10-28T21:34:38.914Z,97320.03
2023-10-28T21:36:43.541Z,97323.31
2023-10-28T21:38:49.257Z,97319.66
2023-10-28T21:40:52.473Z,97319.66
2023-10-28T21:42:56.440Z,97307.06
2023-10-28T21:45:00.546Z,97312.00
2023-10-28T21:47:04.528Z,97306.31
2023-10-28T21:49:09.899Z,97300.69
2023-10-28T21:51:15.711Z,97300.31
2023-10-28T21:53:20.174Z,97295.59
2023-10-28T21:55:24.723Z,97300.59
2023-10-28T21:57:29.274Z,97289.56
2023-10-28T21:59:37.252Z,97292.38
2023-10-28T22:01:42.277Z,97296.50
2023-10-28T22:03:46.376Z,97287.56
2023-10-28T22:05:50.211Z,97292.84
2023-10-28T22:07:55.823Z,97290.00
2023-10-28T22:09:58.345Z,97298.38
2023-10-28T22:12:02.539Z,97286.00
2023-10-28T22:14:07.921Z,97290.91
2023-10-28T22:16:11.602Z,97292.00
2023-10-28T22:18:16.034Z,97292.25
2023-10-28T22:20:19.061Z,97282.13
2023-10-28T22:22:22.817Z,97278.91
2023-10-28T22:24:28.431Z,97281.03
2023-10-28T22:26:32.470Z,97278.03
2023-10-28T22:28:36.800Z,97283.94
2023-10-28T22:30:40.856Z,97271.34
2023-10-28T22:32:44.574Z,97283.94
2023-10-28T22:34:48.732Z,97287.78
2023-10-28T22:36:52.653Z,97286.47
2023-10-28T22:38:57.642Z,97277.28
2023-10-28T22:41:03.088Z,97274.38
2023-10-28T22:43:08.053Z,97270.44
2023-10-28T22:45:13.169Z,97277.56
2023-10-28T22:47:18.351Z,97270.63
2023-10-28T22:49:22.026Z,97270.81
2023-10-28T22:51:26.335Z,97278.75
2023-10-28T22:53:29.915Z,97272.00
2023-10-28T22:55:32.844Z,97279.13
2023-10-28T22:57:39.043Z,97275.84
2023-10-28T22:59:43.066Z,97274.22
2023-10-28T23:01:46.852Z,97274.22
2023-10-28T23:03:50.735Z,97272.56
2023-10-28T23:05:54.831Z,97263.81
2023-10-28T23:07:58.749Z,97270.91
2023-10-28T23:10:05.676Z,97268.28
2023-10-28T23:12:09.822Z,97267.28
2023-10-28T23:14:14.809Z,97261.34
2023-10-28T23:16:19.788Z,97268.47
2023-10-28T23:18:23.452Z,97266.00
2023-10-28T23:20:28.305Z,97268.66
2023-10-28T23:22:32.251Z,97272.94
2023-10-28T23:24:36.058Z,97272.56
2023-10-28T23:26:39.657Z,97271.38
2023-10-28T23:28:43.487Z,97271.81
2023-10-28T23:30:48.472Z,97274.31
2023-10-28T23:32:51.910Z,97272.47
2023-10-28T23:34:55.580Z,97266.38
2023-10-28T23:36:59.312Z,97275.13
2023-10-28T23:39:03.583Z,97271.47
2023-10-28T23:41:07.180Z,97277.56
2023-10-28T23:43:09.803Z,97273.09
2023-10-28T23:45:13.848Z,97270.44
2023-10-28T23:47:20.249Z,97275.72
2023-10-28T23:49:23.883Z,97278.03
2023-10-28T23:51:27.976Z,97274.72
2023-10-28T23:53:30.883Z,97273.09
2023-10-28T23:55:35.174Z,97267.78
2023-10-28T23:57:39.570Z,97272.94
2023-10-28T23:59:43.650Z,97271.75
